Terminal Aerodrome Forecast
Issued by NWS

Home | Current Version | Previous Version | Text Only | Print | Product List | Glossary On
Versions: 1 2 3 4 5 6 7 8 9 10 11 12
510
FTPA31 PHFO 211732
TAFHKO
TAF
PHKO 211732Z 2118/2218 11005KT P6SM FEW050
     FM212000 23009KT P6SM FEW025 SCT060
     FM220500 17007KT P6SM VCSH SCT025 BKN040
     FM221200 12005KT P6SM FEW025=

USA.gov is the U.S. government's official web portal to all federal, state and local government web resources and services.